Terminal Aerodrome Forecast
Issued by NWS Caribou, ME

Home | Current Version | Previous Version | Text Only | Print | Product List | Glossary On
Versions: 1 2 3 4 5 6 7 8 9 10 11 12 13 14 15 16 17 18 19 20 21 22 23
522
FTUS41 KCAR 050535
TAFCAR
TAF
KCAR 050535Z 0506/0606 10004KT P6SM OVC090
     FM051300 06007KT P6SM OVC025
     FM052300 06010KT P6SM OVC040
     FM060200 04007KT P6SM OVC025
     FM060400 03010KT P6SM OVC015=

USA.gov is the U.S. government's official web portal to all federal, state and local government web resources and services.